Time;durP1;ratioP1;P1;durP2;ratioP2;P2;SDS_P1;SDS_P2;PMS_P1;PMS_P2;Temp;Humidity;BMP_temperature;BMP_pressure;BME280_temperature;BME280_humidity;BME280_pressure;Samples;Min_cycle;Max_cycle;Signal;HPM_P1;HPM_P2
2022/01/30 00:00:52;;;;;;;0.40;0.40;;;4.60;99.90;;;;;;4977181;28;20253;-73
2022/01/30 00:03:19;;;;;;;0.50;0.50;;;4.70;99.90;;;;;;4977040;28;20204;-73
2022/01/30 00:05:46;;;;;;;0.50;0.50;;;4.70;99.90;;;;;;4975914;28;20306;-73
2022/01/30 00:08:13;;;;;;;0.50;0.50;;;4.70;99.90;;;;;;4977114;28;20227;-72
2022/01/30 00:10:41;;;;;;;0.40;0.40;;;4.70;99.90;;;;;;4977051;28;20230;-72
2022/01/30 00:13:11;;;;;;;0.32;0.32;;;4.60;99.90;;;;;;4977073;28;20203;-72
2022/01/30 00:15:43;;;;;;;0.40;0.40;;;4.60;99.90;;;;;;4976594;28;20227;-72
2022/01/30 00:18:27;;;;;;;0.30;0.30;;;4.70;99.90;;;;;;4976911;28;20226;-72
2022/01/30 00:21:06;;;;;;;0.30;0.30;;;4.70;99.90;;;;;;4976840;28;20192;-72
2022/01/30 00:23:36;;;;;;;0.35;0.35;;;4.70;99.90;;;;;;4976766;28;20290;-71
2022/01/30 00:26:05;;;;;;;0.30;0.30;;;4.70;99.90;;;;;;4976865;28;20223;-71
2022/01/30 00:28:33;;;;;;;0.40;0.40;;;4.70;99.90;;;;;;4976931;28;20203;-71
2022/01/30 00:31:01;;;;;;;0.47;0.47;;;4.70;99.90;;;;;;4976770;28;20282;-71
2022/01/30 00:33:28;;;;;;;0.40;0.40;;;4.70;99.90;;;;;;4976748;28;20204;-71
2022/01/30 00:35:55;;;;;;;0.40;0.40;;;4.70;99.90;;;;;;4976592;28;20258;-71
2022/01/30 00:38:23;;;;;;;0.40;0.40;;;4.70;99.90;;;;;;4976634;28;20249;-71
2022/01/30 00:40:51;;;;;;;0.40;0.40;;;4.60;99.90;;;;;;4976578;28;20207;-69
2022/01/30 00:43:18;;;;;;;1.55;0.47;;;4.60;99.90;;;;;;4976512;28;20310;-69
2022/01/30 00:45:45;;;;;;;0.40;0.40;;;4.60;99.90;;;;;;4976795;28;20239;-69
2022/01/30 00:48:13;;;;;;;0.55;0.55;;;4.60;99.90;;;;;;4976500;28;20207;-69
2022/01/30 00:50:40;;;;;;;0.40;0.40;;;4.50;99.90;;;;;;4976309;28;20235;-69
2022/01/30 00:53:07;;;;;;;0.43;0.40;;;4.60;99.90;;;;;;4976291;28;20210;-70
2022/01/30 00:55:35;;;;;;;0.40;0.40;;;4.60;99.90;;;;;;4976003;28;20255;-70
2022/01/30 00:58:02;;;;;;;0.50;0.50;;;4.60;99.90;;;;;;4976687;28;20208;-70
2022/01/30 01:00:30;;;;;;;0.40;0.40;;;4.50;99.90;;;;;;4975912;28;20227;-70
2022/01/30 01:02:57;;;;;;;0.40;0.40;;;4.50;99.90;;;;;;4976226;28;20290;-70
2022/01/30 01:05:25;;;;;;;0.40;0.40;;;4.50;99.90;;;;;;4976039;28;20267;-70
2022/01/30 01:07:55;;;;;;;0.40;0.40;;;4.50;99.90;;;;;;4975902;28;20303;-70
2022/01/30 01:10:31;;;;;;;0.40;0.40;;;4.50;99.90;;;;;;4975881;28;20203;-70
2022/01/30 01:13:23;;;;;;;0.40;0.40;;;4.50;99.90;;;;;;4975840;28;20192;-70
2022/01/30 01:24:07;;;;;;;0.40;0.40;;;4.50;99.90;;;;;;4975364;28;20182;-71
2022/01/30 01:26:35;;;;;;;0.40;0.40;;;4.50;99.90;;;;;;4975550;28;20629;-71
2022/01/30 01:29:02;;;;;;;0.40;0.40;;;4.50;99.90;;;;;;4975200;28;20670;-71
2022/01/30 01:31:29;;;;;;;0.40;0.40;;;4.50;99.90;;;;;;4975170;28;20302;-71
2022/01/30 01:34:10;;;;;;;0.40;0.40;;;4.50;99.90;;;;;;4975477;28;20230;-71
2022/01/30 01:36:38;;;;;;;0.40;0.40;;;4.50;99.90;;;;;;4976317;28;20218;-71
2022/01/30 01:39:05;;;;;;;0.35;0.35;;;4.50;99.90;;;;;;4975275;28;20294;-71
2022/01/30 06:34:24;;;;;;;0.65;0.65;;;4.20;99.90;;;;;;5413959;23;20729;-71
2022/01/30 06:36:50;;;;;;;0.50;0.50;;;4.20;99.90;;;;;;4955297;28;20279;-71
2022/01/30 06:39:17;;;;;;;0.50;0.50;;;4.20;99.90;;;;;;4955107;29;20208;-71
2022/01/30 06:41:44;;;;;;;0.60;0.60;;;4.10;99.90;;;;;;4955244;29;20331;-71
2022/01/30 06:44:11;;;;;;;0.50;0.50;;;4.10;99.90;;;;;;4955043;29;20646;-71
2022/01/30 06:46:38;;;;;;;0.50;0.50;;;4.10;99.90;;;;;;4978009;23;20315;-70
2022/01/30 06:49:05;;;;;;;0.40;0.40;;;4.10;99.90;;;;;;4955146;29;20644;-70
2022/01/30 06:51:33;;;;;;;0.60;0.60;;;4.10;99.90;;;;;;4955438;29;20299;-71
2022/01/30 06:54:00;;;;;;;0.60;0.60;;;4.10;99.90;;;;;;4954989;28;20739;-70
2022/01/30 06:56:27;;;;;;;0.63;0.63;;;4.10;99.90;;;;;;4955312;29;20216;-69
2022/01/30 06:58:56;;;;;;;0.50;0.50;;;4.10;99.90;;;;;;4955261;29;20200;-69
2022/01/30 07:01:23;;;;;;;0.40;0.40;;;4.10;99.90;;;;;;4955248;29;20204;-69
2022/01/30 07:03:50;;;;;;;0.40;0.40;;;4.20;99.90;;;;;;4955230;29;20215;-69
2022/01/30 07:06:17;;;;;;;0.50;0.50;;;4.20;99.90;;;;;;4955037;29;20314;-70
2022/01/30 07:08:45;;;;;;;0.40;0.40;;;4.20;99.90;;;;;;4955203;29;20242;-70
2022/01/30 07:11:12;;;;;;;0.43;0.43;;;4.20;99.90;;;;;;4955095;29;20239;-70
2022/01/30 07:13:40;;;;;;;0.40;0.40;;;4.30;99.90;;;;;;4955389;28;20211;-70
2022/01/30 07:16:07;;;;;;;0.60;0.60;;;4.20;99.90;;;;;;4958362;29;20564;-69
2022/01/30 07:18:34;;;;;;;0.60;0.60;;;4.20;99.90;;;;;;4958752;29;20228;-68
2022/01/30 07:21:01;;;;;;;0.40;0.40;;;4.20;99.90;;;;;;4959167;29;20287;-68
2022/01/30 07:23:27;;;;;;;0.47;0.47;;;4.20;99.90;;;;;;4958649;29;20204;-70
2022/01/30 07:25:56;;;;;;;0.55;0.55;;;4.20;99.90;;;;;;4958265;28;20730;-70
2022/01/30 07:28:23;;;;;;;0.40;0.40;;;4.20;99.90;;;;;;4958363;29;20310;-70
2022/01/30 07:30:49;;;;;;;0.40;0.40;;;4.20;99.90;;;;;;4958404;29;20238;-70
2022/01/30 07:33:16;;;;;;;0.40;0.40;;;4.20;99.90;;;;;;4958471;29;20359;-70
2022/01/30 07:35:44;;;;;;;0.40;0.40;;;4.20;99.90;;;;;;4958392;29;20286;-70
2022/01/30 07:38:12;;;;;;;0.50;0.50;;;4.30;99.90;;;;;;4957953;29;20587;-70
2022/01/30 07:40:39;;;;;;;0.50;0.50;;;4.40;99.90;;;;;;4958435;28;20192;-70
2022/01/30 07:43:08;;;;;;;0.50;0.50;;;4.40;99.90;;;;;;4958295;29;20200;-70
2022/01/30 07:45:35;;;;;;;0.60;0.60;;;4.50;99.90;;;;;;4957812;29;20570;-70
2022/01/30 07:48:02;;;;;;;0.50;0.50;;;4.60;99.90;;;;;;4957751;29;20263;-70
2022/01/30 07:50:29;;;;;;;0.50;0.50;;;4.80;99.90;;;;;;4957870;29;20208;-70
2022/01/30 07:52:56;;;;;;;0.55;0.55;;;5.60;99.90;;;;;;4958344;29;20556;-69
2022/01/30 07:55:23;;;;;;;0.60;0.60;;;7.00;99.90;;;;;;4957856;28;20260;-69
2022/01/30 07:57:50;;;;;;;0.77;0.70;;;7.60;99.90;;;;;;4958121;29;20251;-70
2022/01/30 08:00:18;;;;;;;0.60;0.60;;;7.80;99.90;;;;;;4958106;29;20291;-70
2022/01/30 08:02:45;;;;;;;0.50;0.50;;;8.30;99.90;;;;;;4958055;29;20204;-70
2022/01/30 08:05:12;;;;;;;0.50;0.50;;;8.00;99.90;;;;;;4958004;29;20242;-70
2022/01/30 08:07:39;;;;;;;0.60;0.60;;;7.60;99.90;;;;;;4957754;29;20234;-70
2022/01/30 08:10:06;;;;;;;0.47;0.47;;;7.20;99.90;;;;;;4957790;29;20234;-70
2022/01/30 08:12:35;;;;;;;0.60;0.60;;;6.90;99.90;;;;;;4959052;29;20243;-70
2022/01/30 08:15:03;;;;;;;0.50;0.50;;;6.70;99.90;;;;;;4964329;29;20277;-70
2022/01/30 08:17:33;;;;;;;0.60;0.60;;;6.50;99.90;;;;;;4962586;28;20219;-70
2022/01/30 08:20:01;;;;;;;0.50;0.50;;;6.40;99.90;;;;;;4963241;29;20200;-70
2022/01/30 08:22:30;;;;;;;0.68;0.55;;;6.30;99.90;;;;;;4963458;29;20744;-70
2022/01/30 08:24:57;;;;;;;0.43;0.43;;;6.10;99.90;;;;;;4964136;28;20578;-70
2022/01/30 08:27:24;;;;;;;2.67;0.60;;;6.00;99.90;;;;;;4963723;29;20228;-72
2022/01/30 08:29:52;;;;;;;0.60;0.60;;;6.00;99.90;;;;;;4963317;29;20212;-70
2022/01/30 08:32:20;;;;;;;0.60;0.60;;;5.90;99.90;;;;;;4962599;28;20204;-70
2022/01/30 08:34:49;;;;;;;0.57;0.57;;;5.90;99.90;;;;;;4963195;29;20208;-71
2022/01/30 08:37:16;;;;;;;0.70;0.70;;;5.90;99.90;;;;;;4962636;29;20216;-71
2022/01/30 08:39:46;;;;;;;0.60;0.60;;;6.00;99.90;;;;;;4963877;29;20660;-73
2022/01/30 08:42:13;;;;;;;0.55;0.55;;;6.00;99.90;;;;;;4958411;28;20204;-68
2022/01/30 08:44:40;;;;;;;0.70;0.70;;;6.00;99.90;;;;;;4957431;29;20243;-68
2022/01/30 08:47:07;;;;;;;0.60;0.60;;;6.00;99.90;;;;;;4956680;28;20263;-71
2022/01/30 08:49:35;;;;;;;0.60;0.60;;;6.00;99.90;;;;;;4957254;29;20212;-70
2022/01/30 08:52:03;;;;;;;0.50;0.50;;;6.00;99.90;;;;;;4956891;29;20650;-71
2022/01/30 08:54:30;;;;;;;0.50;0.50;;;6.00;99.90;;;;;;4956727;29;20295;-72
2022/01/30 08:56:57;;;;;;;0.70;0.70;;;6.00;99.90;;;;;;4957302;29;20220;-69
2022/01/30 08:59:23;;;;;;;0.60;0.60;;;6.00;99.90;;;;;;4956761;29;20207;-69
2022/01/30 09:01:50;;;;;;;0.77;0.77;;;6.00;99.90;;;;;;4956967;29;20297;-69
2022/01/30 09:04:17;;;;;;;0.50;0.50;;;6.00;99.90;;;;;;4956929;29;20251;-69
2022/01/30 09:06:44;;;;;;;0.68;0.68;;;6.10;99.90;;;;;;4956575;29;20228;-69
2022/01/30 09:09:12;;;;;;;0.85;0.65;;;6.20;99.90;;;;;;4956265;29;20624;-69
2022/01/30 09:11:39;;;;;;;0.50;0.50;;;6.20;99.90;;;;;;4956635;29;20539;-69
2022/01/30 09:14:07;;;;;;;0.60;0.60;;;6.30;99.90;;;;;;4956427;29;20629;-69
2022/01/30 09:16:34;;;;;;;0.98;0.98;;;6.40;99.90;;;;;;4956636;28;20259;-69
2022/01/30 09:19:01;;;;;;;0.82;0.82;;;6.40;99.90;;;;;;4956507;29;20299;-70
2022/01/30 09:21:28;;;;;;;1.00;1.00;;;6.50;99.90;;;;;;4956425;29;20214;-69
2022/01/30 09:23:56;;;;;;;0.82;0.82;;;6.70;99.90;;;;;;4956234;29;20212;-69
2022/01/30 09:26:24;;;;;;;0.85;0.85;;;7.00;99.90;;;;;;4955997;29;20204;-70
2022/01/30 09:28:51;;;;;;;0.60;0.60;;;7.20;99.90;;;;;;4956247;29;20251;-70
2022/01/30 09:31:18;;;;;;;1.00;1.00;;;7.40;99.90;;;;;;4956137;29;20214;-70
2022/01/30 09:33:44;;;;;;;0.70;0.70;;;7.60;99.90;;;;;;4956432;28;20302;-69
2022/01/30 09:36:12;;;;;;;0.70;0.70;;;7.70;99.90;;;;;;4956152;29;20295;-69
2022/01/30 09:38:39;;;;;;;0.70;0.70;;;8.00;99.90;;;;;;4956227;28;20204;-69
2022/01/30 09:41:08;;;;;;;1.95;0.90;;;8.20;99.90;;;;;;4956011;29;20184;-70
2022/01/30 09:43:36;;;;;;;1.48;0.82;;;8.30;99.90;;;;;;4956093;29;20288;-70
2022/01/30 09:46:04;;;;;;;2.45;0.90;;;8.20;99.90;;;;;;4956078;29;20235;-69
2022/01/30 09:48:35;;;;;;;0.75;0.75;;;8.20;99.90;;;;;;4955720;29;20250;-68
2022/01/30 09:51:04;;;;;;;0.80;0.80;;;8.30;99.90;;;;;;4955925;29;20645;-68
2022/01/30 09:53:32;;;;;;;2.33;1.13;;;8.20;99.90;;;;;;4956142;29;20200;-68
2022/01/30 09:55:59;;;;;;;0.88;0.88;;;8.20;99.90;;;;;;4956152;29;20299;-67
2022/01/30 09:58:26;;;;;;;0.75;0.70;;;8.10;99.90;;;;;;4956022;29;20311;-69
2022/01/30 10:00:54;;;;;;;1.75;1.00;;;7.90;99.90;;;;;;4956004;29;20295;-68
2022/01/30 10:03:22;;;;;;;0.70;0.70;;;7.70;99.90;;;;;;4956184;28;20239;-68
2022/01/30 10:06:07;;;;;;;0.85;0.85;;;7.60;99.90;;;;;;4955896;29;20215;-68
2022/01/30 10:08:41;;;;;;;0.50;0.50;;;7.50;99.90;;;;;;4955987;29;20216;-66
2022/01/30 10:11:26;;;;;;;0.70;0.70;;;7.40;99.90;;;;;;4955769;29;20223;-67
2022/01/30 10:14:08;;;;;;;0.98;0.98;;;7.40;99.90;;;;;;4955547;29;20536;-68
2022/01/30 10:16:43;;;;;;;1.10;1.00;;;7.40;99.90;;;;;;4956266;28;20302;-68
2022/01/30 10:19:13;;;;;;;0.98;0.98;;;7.40;99.90;;;;;;4955875;29;20207;-68
2022/01/30 10:21:41;;;;;;;0.80;0.80;;;7.30;99.90;;;;;;4955708;29;20273;-68
2022/01/30 10:24:22;;;;;;;1.88;1.20;;;7.20;99.90;;;;;;4955637;29;20239;-67
2022/01/30 10:26:50;;;;;;;1.52;0.95;;;7.10;99.90;;;;;;4955465;29;20259;-68
2022/01/30 10:29:22;;;;;;;1.38;1.20;;;7.10;99.90;;;;;;4955822;29;20223;-69
2022/01/30 10:32:02;;;;;;;1.48;1.00;;;7.10;99.90;;;;;;4955911;29;20184;-69
2022/01/30 10:34:29;;;;;;;1.27;1.10;;;7.00;99.90;;;;;;4955500;29;20188;-69
2022/01/30 10:37:16;;;;;;;1.38;1.10;;;7.00;99.90;;;;;;4955837;28;20249;-69
2022/01/30 10:39:58;;;;;;;2.22;1.48;;;6.90;99.90;;;;;;4955788;28;20204;-69
2022/01/30 10:42:39;;;;;;;1.30;1.20;;;6.80;99.90;;;;;;4955526;29;20602;-70
2022/01/30 10:45:12;;;;;;;1.90;1.25;;;6.70;99.90;;;;;;4955809;29;20228;-69
2022/01/30 10:47:42;;;;;;;1.48;1.15;;;6.60;99.90;;;;;;4955237;28;20574;-70
2022/01/30 10:50:16;;;;;;;2.10;1.35;;;6.60;99.90;;;;;;4959854;28;20210;-69
2022/01/30 10:52:52;;;;;;;1.30;1.20;;;6.50;99.90;;;;;;4962140;29;20198;-69
2022/01/30 10:55:32;;;;;;;1.00;1.00;;;6.50;99.90;;;;;;4962003;28;20290;-70
2022/01/30 10:58:00;;;;;;;2.28;1.50;;;6.50;99.90;;;;;;4961443;29;20306;-69
2022/01/30 11:00:40;;;;;;;2.08;1.35;;;6.50;99.90;;;;;;4959361;29;20207;-69
2022/01/30 11:03:31;;;;;;;1.67;1.50;;;6.40;99.90;;;;;;4959015;29;20552;-70
2022/01/30 11:05:59;;;;;;;1.42;1.30;;;6.50;99.90;;;;;;4958798;29;20294;-71
2022/01/30 11:08:28;;;;;;;2.67;1.48;;;6.50;99.90;;;;;;4958784;29;20764;-70
2022/01/30 11:11:07;;;;;;;5.03;1.65;;;6.60;99.90;;;;;;4958834;29;20567;-69
2022/01/30 11:13:47;;;;;;;1.30;1.25;;;6.60;99.90;;;;;;4958862;29;20184;-69
2022/01/30 11:19:02;;;;;;;3.42;1.50;;;7.00;99.90;;;;;;4959059;29;20179;-67
2022/01/30 11:21:30;;;;;;;1.70;1.25;;;7.20;99.90;;;;;;4958576;29;20718;-68
2022/01/30 11:23:59;;;;;;;2.08;1.27;;;7.40;99.90;;;;;;4958678;29;20211;-68
2022/01/30 11:26:26;;;;;;;1.92;1.15;;;7.40;99.90;;;;;;4958724;29;20224;-67
2022/01/30 11:28:53;;;;;;;5.28;1.30;;;7.40;99.90;;;;;;4958937;29;20230;-68
2022/01/30 11:31:21;;;;;;;4.97;1.33;;;7.30;99.90;;;;;;4958527;29;20632;-69
2022/01/30 11:33:52;;;;;;;3.47;1.15;;;7.30;99.90;;;;;;4958872;29;20204;-66
2022/01/30 11:36:22;;;;;;;4.65;1.35;;;7.30;99.90;;;;;;4958776;28;20189;-68
2022/01/30 11:38:49;;;;;;;2.75;1.10;;;7.20;99.90;;;;;;4958845;28;20631;-68
2022/01/30 11:41:18;;;;;;;1.77;1.02;;;7.20;99.90;;;;;;4958657;29;20676;-65
2022/01/30 11:44:18;;;;;;;1.13;1.10;;;7.20;99.90;;;;;;4958504;29;20206;-66
2022/01/30 11:46:45;;;;;;;1.25;1.15;;;7.20;99.90;;;;;;4957926;29;20242;-67
2022/01/30 11:49:15;;;;;;;2.00;1.17;;;7.30;99.90;;;;;;4958176;29;20219;-66
2022/01/30 11:51:50;;;;;;;3.45;1.25;;;7.40;99.90;;;;;;4957942;29;20184;-66
2022/01/30 11:54:34;;;;;;;1.90;1.42;;;7.40;99.90;;;;;;4958342;29;20286;-68
2022/01/30 11:57:01;;;;;;;1.58;1.25;;;7.30;99.90;;;;;;4957942;29;20640;-68
2022/01/30 11:59:38;;;;;;;2.50;1.45;;;7.30;99.90;;;;;;4958085;28;20210;-67
2022/01/30 12:02:25;;;;;;;2.15;1.00;;;7.20;99.90;;;;;;4956914;29;20214;-67
2022/01/30 12:04:59;;;;;;;2.20;1.00;;;7.10;99.90;;;;;;4957915;28;20295;-68
2022/01/30 12:07:34;;;;;;;3.90;1.52;;;7.10;99.90;;;;;;4957571;29;20312;-68
2022/01/30 12:10:33;;;;;;;4.53;1.20;;;7.10;99.90;;;;;;4957566;29;20292;-68
2022/01/30 12:13:02;;;;;;;2.55;1.20;;;7.00;99.90;;;;;;4957756;28;20211;-69
2022/01/30 12:15:36;;;;;;;1.20;1.10;;;7.00;99.90;;;;;;4957876;29;20198;-68
2022/01/30 12:18:03;;;;;;;1.40;1.00;;;7.00;99.90;;;;;;4957498;29;20219;-68
2022/01/30 12:20:33;;;;;;;1.25;1.00;;;7.00;99.90;;;;;;4957650;29;20235;-68
2022/01/30 12:23:01;;;;;;;2.67;1.38;;;7.00;99.90;;;;;;4957331;29;20208;-67
2022/01/30 12:25:39;;;;;;;2.42;1.20;;;7.00;99.90;;;;;;4958099;29;20290;-69
2022/01/30 12:28:13;;;;;;;1.80;1.50;;;6.90;99.90;;;;;;4957344;29;20228;-69
2022/01/30 12:30:52;;;;;;;1.55;1.30;;;7.00;99.90;;;;;;4958178;29;20210;-66
2022/01/30 12:33:42;;;;;;;2.35;1.02;;;7.00;99.90;;;;;;4957404;29;20188;-66
2022/01/30 12:36:20;;;;;;;3.03;1.50;;;7.00;99.90;;;;;;4957278;28;20208;-68
2022/01/30 12:38:59;;;;;;;5.78;1.10;;;6.90;99.90;;;;;;4957554;29;20196;-67
2022/01/30 12:41:27;;;;;;;3.75;1.30;;;6.70;99.90;;;;;;4957666;29;20192;-65
2022/01/30 12:43:56;;;;;;;1.45;1.00;;;6.60;99.90;;;;;;4957357;29;20239;-65
2022/01/30 12:46:28;;;;;;;3.08;1.13;;;6.60;99.90;;;;;;4958949;29;20236;-65
2022/01/30 12:49:16;;;;;;;1.77;1.20;;;6.60;99.90;;;;;;4957634;29;20212;-66
2022/01/30 12:51:48;;;;;;;1.52;1.10;;;6.50;99.90;;;;;;4955532;28;20291;-66
2022/01/30 12:54:18;;;;;;;1.48;1.33;;;6.50;99.90;;;;;;4961551;29;20252;-66
2022/01/30 12:56:46;;;;;;;1.52;1.15;;;6.50;99.90;;;;;;4960704;29;20230;-65
2022/01/30 12:59:14;;;;;;;2.88;1.38;;;6.40;99.90;;;;;;4960228;29;20652;-66
2022/01/30 13:01:44;;;;;;;1.60;1.10;;;6.30;99.90;;;;;;4959095;29;20246;-66
2022/01/30 13:04:14;;;;;;;1.25;0.80;;;6.30;99.90;;;;;;4959570;28;20738;-65
2022/01/30 13:06:42;;;;;;;2.00;1.30;;;6.20;99.90;;;;;;4958075;29;20310;-65
2022/01/30 13:09:11;;;;;;;2.33;1.40;;;6.30;99.90;;;;;;4957446;29;20558;-66
2022/01/30 13:11:39;;;;;;;2.60;1.10;;;6.20;99.90;;;;;;4957168;28;20232;-66
2022/01/30 13:14:08;;;;;;;2.42;1.30;;;6.20;99.90;;;;;;4957486;29;20240;-66
2022/01/30 13:16:42;;;;;;;1.40;1.30;;;6.20;99.90;;;;;;4957542;29;20263;-66
2022/01/30 13:19:10;;;;;;;1.05;1.02;;;6.30;99.90;;;;;;4957303;29;20216;-67
2022/01/30 13:21:39;;;;;;;1.08;1.00;;;6.30;99.90;;;;;;4956327;29;20290;-67
2022/01/30 13:24:07;;;;;;;1.15;1.15;;;6.30;99.90;;;;;;4956205;29;20203;-67
2022/01/30 13:26:45;;;;;;;1.60;1.00;;;6.20;99.90;;;;;;4956172;29;20255;-67
2022/01/30 13:29:18;;;;;;;1.73;1.10;;;6.20;99.90;;;;;;4956726;28;20722;-65
2022/01/30 13:31:49;;;;;;;2.65;1.80;;;6.20;99.90;;;;;;4956008;29;20291;-65
2022/01/30 13:34:22;;;;;;;1.20;1.10;;;6.10;99.90;;;;;;4955993;28;20203;-65
2022/01/30 13:36:55;;;;;;;5.80;1.20;;;6.10;99.90;;;;;;4956056;29;20224;-66
2022/01/30 13:39:34;;;;;;;3.33;1.50;;;6.10;99.90;;;;;;4956331;29;20185;-66
2022/01/30 13:42:28;;;;;;;3.88;1.33;;;6.00;99.90;;;;;;4956290;28;20267;-69
2022/01/30 13:46:53;;;;;;;1.08;1.02;;;6.10;99.90;;;;;;4955916;29;20637;-69
2022/01/30 13:47:52;;;;;;;4.28;1.20;;;6.00;99.90;;;;;;4955722;29;20231;-68
2022/01/30 13:50:19;;;;;;;1.75;1.10;;;6.00;99.90;;;;;;4956552;29;20204;-68
2022/01/30 14:57:33;;;;;;;0.90;0.90;;;5.10;99.90;;;;;;5539941;23;20231;-72
2022/01/30 14:59:59;;;;;;;1.65;0.88;;;5.00;99.90;;;;;;4954553;29;20635;-71
2022/01/30 15:02:26;;;;;;;0.60;0.60;;;5.00;99.90;;;;;;4954701;29;20295;-71
2022/01/30 15:04:54;;;;;;;0.70;0.70;;;5.00;99.90;;;;;;4954972;28;20291;-70
2022/01/30 15:07:21;;;;;;;0.80;0.80;;;5.00;99.90;;;;;;4955075;29;20283;-71
2022/01/30 15:09:49;;;;;;;0.82;0.63;;;5.00;99.90;;;;;;4957363;28;20274;-70
2022/01/30 15:12:17;;;;;;;1.00;1.00;;;5.00;99.90;;;;;;4957501;29;20212;-70
2022/01/30 15:14:51;;;;;;;1.10;0.80;;;4.90;99.90;;;;;;4958134;29;20228;-71
2022/01/30 15:17:22;;;;;;;0.93;0.93;;;4.80;99.90;;;;;;4958232;29;20238;-71
2022/01/30 15:19:49;;;;;;;1.70;1.38;;;4.70;99.90;;;;;;4957487;28;20643;-72
2022/01/30 15:22:17;;;;;;;0.80;0.80;;;4.70;99.90;;;;;;4956521;29;20203;-72
2022/01/30 15:24:51;;;;;;;0.93;0.68;;;4.70;99.90;;;;;;4956632;29;20266;-71
2022/01/30 15:27:20;;;;;;;0.80;0.80;;;4.70;99.90;;;;;;4955166;28;20220;-71
2022/01/30 15:29:49;;;;;;;0.80;0.80;;;4.70;99.90;;;;;;4956740;28;20220;-71
2022/01/30 15:32:16;;;;;;;1.20;0.70;;;4.60;99.90;;;;;;4957124;28;20298;-72
2022/01/30 15:34:43;;;;;;;1.00;1.00;;;4.60;99.90;;;;;;4958398;28;20263;-71
2022/01/30 15:37:12;;;;;;;0.80;0.80;;;4.50;99.90;;;;;;4960837;29;20307;-71
2022/01/30 15:39:40;;;;;;;2.00;1.30;;;4.50;99.90;;;;;;4961369;29;20570;-71
2022/01/30 15:42:08;;;;;;;1.27;1.27;;;4.50;99.90;;;;;;4960281;29;20233;-71
2022/01/30 15:49:01;;;;;;;1.20;1.20;;;4.40;99.90;;;;;;4960060;29;20366;-71
2022/01/30 15:50:26;;;;;;;1.17;1.17;;;4.30;99.90;;;;;;4960710;29;20207;-72
2022/01/30 15:52:54;;;;;;;0.95;0.95;;;4.20;99.90;;;;;;4960104;29;20259;-73
2022/01/30 15:55:22;;;;;;;1.20;1.10;;;4.20;99.90;;;;;;4960776;28;20622;-73
2022/01/30 15:57:50;;;;;;;0.85;0.85;;;4.10;99.90;;;;;;4958075;29;20239;-71
2022/01/30 16:00:18;;;;;;;1.25;1.00;;;4.10;99.90;;;;;;4958036;29;20192;-72
2022/01/30 16:02:50;;;;;;;0.80;0.80;;;4.00;99.90;;;;;;4958790;29;20227;-72
2022/01/30 16:05:19;;;;;;;0.80;0.80;;;3.90;99.90;;;;;;4957841;29;20192;-71
2022/01/30 16:07:46;;;;;;;0.90;0.90;;;3.90;99.90;;;;;;4957547;29;20227;-71
2022/01/30 16:10:19;;;;;;;1.00;1.00;;;3.80;99.90;;;;;;4958118;29;20219;-70
2022/01/30 16:15:38;;;;;;;0.60;0.60;;;3.60;99.90;;;;;;4957127;29;20173;-71
2022/01/30 16:18:12;;;;;;;0.80;0.80;;;3.50;99.90;;;;;;4957589;29;20259;-72
2022/01/30 16:20:40;;;;;;;0.80;0.80;;;3.40;99.90;;;;;;4957483;29;20242;-72
2022/01/30 16:23:08;;;;;;;1.25;0.73;;;3.40;99.90;;;;;;4957365;29;20657;-72
2022/01/30 16:25:37;;;;;;;0.80;0.80;;;3.30;99.90;;;;;;4957306;29;20208;-72
2022/01/30 16:28:05;;;;;;;0.95;0.95;;;3.20;99.90;;;;;;4957742;29;20314;-73
2022/01/30 16:30:33;;;;;;;1.33;1.23;;;3.20;99.90;;;;;;4957173;29;20291;-74
2022/01/30 16:32:59;;;;;;;1.55;1.45;;;3.10;99.90;;;;;;4957915;29;20633;-73
2022/01/30 16:35:31;;;;;;;1.70;1.67;;;3.00;99.90;;;;;;4957630;29;20310;-72
2022/01/30 16:37:59;;;;;;;1.92;1.83;;;2.90;99.90;;;;;;4957979;29;20238;-72
2022/01/30 16:40:26;;;;;;;1.83;1.75;;;2.80;99.90;;;;;;4957190;29;20204;-72
2022/01/30 16:42:53;;;;;;;1.60;1.52;;;2.70;99.90;;;;;;4957547;29;20204;-72
2022/01/30 16:45:26;;;;;;;1.98;1.60;;;2.60;99.90;;;;;;4958372;29;20291;-72
2022/01/30 16:48:02;;;;;;;1.70;1.60;;;2.60;99.90;;;;;;4960541;28;20228;-72
2022/01/30 16:50:33;;;;;;;1.80;1.70;;;2.50;99.90;;;;;;4960590;29;20246;-71
2022/01/30 16:53:00;;;;;;;1.65;1.63;;;2.40;99.90;;;;;;4961431;29;20200;-71
2022/01/30 16:55:30;;;;;;;1.40;1.38;;;2.30;99.90;;;;;;4960176;29;20188;-71
2022/01/30 16:57:58;;;;;;;1.45;1.45;;;2.30;99.90;;;;;;4957947;28;20267;-71
2022/01/30 17:00:25;;;;;;;1.63;1.52;;;2.20;99.90;;;;;;4959144;29;20224;-71
2022/01/30 17:02:53;;;;;;;1.50;1.40;;;2.10;99.90;;;;;;4958483;29;20210;-71
2022/01/30 17:05:23;;;;;;;1.73;1.63;;;2.10;99.90;;;;;;4960280;29;20208;-71
2022/01/30 17:07:52;;;;;;;1.77;1.67;;;2.20;99.90;;;;;;4959641;28;20542;-70
2022/01/30 17:10:21;;;;;;;2.00;1.90;;;1.90;99.90;;;;;;4959791;28;20224;-70
2022/01/30 17:13:00;;;;;;;1.27;1.27;;;1.80;99.90;;;;;;4960196;28;20224;-70
2022/01/30 17:15:35;;;;;;;1.80;1.70;;;1.80;99.90;;;;;;4956694;28;20188;-70
2022/01/30 17:18:02;;;;;;;1.48;1.48;;;1.70;99.90;;;;;;4956514;29;20255;-70
2022/01/30 17:20:29;;;;;;;1.67;1.58;;;1.70;99.90;;;;;;4956432;28;20679;-70
2022/01/30 17:22:57;;;;;;;1.88;1.77;;;1.60;99.90;;;;;;4956256;29;20283;-71
2022/01/30 17:25:25;;;;;;;1.20;1.20;;;1.60;99.90;;;;;;4956257;29;20730;-71
2022/01/30 17:27:52;;;;;;;1.10;1.10;;;1.60;99.90;;;;;;4956301;29;20259;-72
2022/01/30 17:30:19;;;;;;;1.10;1.10;;;1.50;99.90;;;;;;4956101;28;20715;-73
2022/01/30 17:32:46;;;;;;;1.00;1.00;;;1.50;99.90;;;;;;4956137;29;20742;-74
2022/01/30 17:35:13;;;;;;;1.00;1.00;;;1.40;99.90;;;;;;4956147;29;20645;-74
2022/01/30 17:37:40;;;;;;;1.15;1.15;;;1.40;99.90;;;;;;4956194;29;20224;-73
2022/01/30 17:40:09;;;;;;;0.90;0.90;;;1.30;99.90;;;;;;4956150;29;20291;-73
2022/01/30 17:42:36;;;;;;;1.10;1.10;;;1.30;99.90;;;;;;4956115;28;20295;-73
2022/01/30 17:45:04;;;;;;;0.93;0.93;;;1.20;99.90;;;;;;4955927;29;20210;-74
2022/01/30 17:47:31;;;;;;;1.13;1.05;;;1.20;99.90;;;;;;4956014;29;20562;-73
2022/01/30 17:49:58;;;;;;;1.27;0.90;;;1.10;99.90;;;;;;4955988;29;20224;-73
2022/01/30 17:52:26;;;;;;;1.00;1.00;;;1.10;99.90;;;;;;4956029;29;20290;-73
2022/01/30 17:54:53;;;;;;;1.10;1.10;;;1.00;99.90;;;;;;4955931;29;20294;-73
2022/01/30 17:57:21;;;;;;;0.80;0.80;;;1.00;99.90;;;;;;4956022;29;20323;-73
2022/01/30 17:59:48;;;;;;;0.88;0.88;;;1.00;99.90;;;;;;4955488;28;20246;-73
2022/01/30 18:02:15;;;;;;;0.80;0.80;;;0.90;99.90;;;;;;4955893;29;20727;-72
2022/01/30 18:04:42;;;;;;;0.70;0.70;;;0.90;99.90;;;;;;4956563;29;20242;-72
2022/01/30 18:07:10;;;;;;;1.00;1.00;;;0.80;99.90;;;;;;4956201;29;20711;-73
2022/01/30 18:09:39;;;;;;;0.95;0.95;;;0.80;99.90;;;;;;4956078;29;20401;-73
2022/01/30 18:12:09;;;;;;;0.85;0.85;;;0.70;99.90;;;;;;4956326;29;20236;-73
2022/01/30 18:14:37;;;;;;;1.10;1.10;;;0.70;99.90;;;;;;4956362;29;20639;-72
2022/01/30 18:17:05;;;;;;;1.00;1.00;;;0.60;99.90;;;;;;4955908;28;20310;-72
2022/01/30 18:19:32;;;;;;;1.23;1.23;;;0.60;99.90;;;;;;4955574;29;20223;-72
2022/01/30 18:22:00;;;;;;;1.08;1.08;;;0.60;99.90;;;;;;4955203;29;20651;-73
2022/01/30 18:24:28;;;;;;;1.10;1.10;;;0.50;99.90;;;;;;4955416;29;20306;-73
2022/01/30 18:26:55;;;;;;;0.90;0.90;;;0.50;99.90;;;;;;4955037;29;20780;-72
2022/01/30 18:29:22;;;;;;;0.90;0.90;;;0.50;99.90;;;;;;4955228;29;20314;-72
2022/01/30 18:31:53;;;;;;;1.08;1.08;;;0.50;99.90;;;;;;4955468;29;20290;-75
2022/01/30 18:34:20;;;;;;;1.00;1.00;;;0.40;99.90;;;;;;4955651;28;20191;-73
2022/01/30 18:36:53;;;;;;;1.00;1.00;;;0.40;99.90;;;;;;4955299;29;20356;-72
2022/01/30 18:39:27;;;;;;;1.15;1.10;;;0.40;99.90;;;;;;4955282;28;20198;-73
2022/01/30 18:41:54;;;;;;;1.00;1.00;;;0.30;99.90;;;;;;4955040;28;20192;-73
2022/01/30 18:44:21;;;;;;;1.00;1.00;;;0.30;99.90;;;;;;4955444;29;20230;-74
2022/01/30 18:46:49;;;;;;;1.00;1.00;;;0.30;99.90;;;;;;4955196;29;20611;-73
2022/01/30 18:49:16;;;;;;;1.13;1.13;;;0.30;99.90;;;;;;4955265;29;20314;-72
2022/01/30 18:51:43;;;;;;;1.10;1.10;;;0.20;99.90;;;;;;4955121;29;20622;-72
2022/01/30 18:54:10;;;;;;;0.95;0.95;;;0.20;99.90;;;;;;4955173;29;20629;-74
2022/01/30 18:56:37;;;;;;;1.10;1.10;;;0.20;99.90;;;;;;4955117;29;20310;-72
2022/01/30 18:59:04;;;;;;;1.00;1.00;;;0.20;99.90;;;;;;4982915;23;20318;-71
2022/01/30 19:01:31;;;;;;;1.08;1.08;;;0.10;99.90;;;;;;4974620;28;20289;-70
2022/01/30 19:03:59;;;;;;;0.70;0.70;;;0.10;99.90;;;;;;4974722;28;20295;-70
2022/01/30 19:06:35;;;;;;;1.05;1.05;;;0.10;99.90;;;;;;4974694;28;20294;-70
2022/01/30 19:09:02;;;;;;;1.27;1.17;;;0.10;99.90;;;;;;4974806;28;20698;-70
2022/01/30 19:11:29;;;;;;;1.10;1.10;;;0.00;99.90;;;;;;4977158;28;20234;-70
2022/01/30 19:13:56;;;;;;;1.08;1.08;;;0.00;99.90;;;;;;4978125;28;20207;-70
2022/01/30 19:16:23;;;;;;;1.10;1.10;;;0.00;99.90;;;;;;4978303;28;20323;-70
2022/01/30 19:18:50;;;;;;;1.20;1.20;;;0.00;99.90;;;;;;4978083;28;20322;-70
2022/01/30 19:21:18;;;;;;;1.13;1.13;;;0.00;99.90;;;;;;4978227;28;20293;-69
2022/01/30 19:23:45;;;;;;;1.10;1.10;;;-0.10;99.90;;;;;;4978159;28;20290;-70
2022/01/30 19:26:12;;;;;;;1.48;1.40;;;-0.10;99.90;;;;;;4978829;28;20290;-70